< < Back
Terminal Aerodrome Forecast


Current Version              Previous Versions:   1  2  3  4  5  6  7  8  9  

Terminal Aerodrome Forecast

590
FTUS42 KTAE 222300
TAFDHN
TAF
KDHN 222331Z 2300/2324 28006KT P6SM SHRA BKN060 OVC100
     FM230300 30005KT P6SM BKN100
     FM231000 32004KT 6SM BR SCT007 SCT100
     FM231400 35006KT P6SM SCT040=

Latest METAR

892
SAUS70 KWBC 231000 RRM
MTRDHN
METAR KDHN 230953Z AUTO 00000KT 6SM BR CLR 16/16 A2993 RMK AO2 SLP132
T01610156


USA.gov is the U.S. government's official web portal to all federal, state and local government web resources and services.